Time;durP1;ratioP1;P1;durP2;ratioP2;P2;SDS_P1;SDS_P2;PMS_P1;PMS_P2;Temp;Humidity;BMP_temperature;BMP_pressure;BME280_temperature;BME280_humidity;BME280_pressure;Samples;Min_cycle;Max_cycle;Signal;HPM_P1;HPM_P2
2023/09/18 00:00:02;;;;;;;81.97;36.08;;;;;;;;;;5013736;28;20393;-72
2023/09/18 00:02:31;;;;;;;92.70;38.35;;;;;;;;;;5017055;28;20461;-73
2023/09/18 00:04:57;;;;;;;86.40;35.47;;;;;;;;;;5016886;28;20456;-73
2023/09/18 00:07:23;;;;;;;89.53;36.23;;;;;;;;;;5015898;28;20050;-73
2023/09/18 00:09:51;;;;;;;84.50;36.70;;;;;;;;;;5015868;28;20288;-73
2023/09/18 00:12:17;;;;;;;88.20;36.95;;;;;;;;;;5015489;28;20140;-73
2023/09/18 00:14:43;;;;;;;89.38;36.60;;;;;;;;;;5016830;28;20046;-73
2023/09/18 00:17:09;;;;;;;86.90;36.30;;;;;;;;;;5016882;28;20509;-74
2023/09/18 00:19:35;;;;;;;92.53;37.73;;;;;;;;;;5016715;28;20046;-73
2023/09/18 00:22:01;;;;;;;95.00;39.47;;;;;;;;;;5016611;28;20325;-74
2023/09/18 00:24:28;;;;;;;89.93;38.43;;;;;;;;;;5016945;28;20057;-73
2023/09/18 00:26:54;;;;;;;94.63;39.63;;;;;;;;;;5015958;28;20642;-73
2023/09/18 00:29:20;;;;;;;95.32;40.05;;;;;;;;;;5016432;28;20045;-73
2023/09/18 00:31:46;;;;;;;95.75;39.33;;;;;;;;;;5016410;28;20042;-74
2023/09/18 00:34:12;;;;;;;91.63;39.63;;;;;;;;;;5015627;28;20052;-73
2023/09/18 00:36:38;;;;;;;102.67;42.77;;;;;;;;;;5016852;28;20288;-74
2023/09/18 00:39:05;;;;;;;103.77;40.80;;;;;;;;;;4998686;28;20381;-73
2023/09/18 00:41:31;;;;;;;92.93;41.05;;;;;;;;;;5016268;28;20291;-73
2023/09/18 00:43:57;;;;;;;97.13;41.10;;;;;;;;;;5015022;28;20103;-73
2023/09/18 00:46:23;;;;;;;99.60;40.87;;;;;;;;;;5016031;28;20301;-73
2023/09/18 00:48:50;;;;;;;95.55;40.13;;;;;;;;;;5016195;28;20440;-73
2023/09/18 00:51:17;;;;;;;97.80;41.30;;;;;;;;;;5014777;28;20050;-72
2023/09/18 00:53:48;;;;;;;103.63;42.17;;;;;;;;;;5016030;28;20053;-72
2023/09/18 00:56:14;;;;;;;97.97;40.72;;;;;;;;;;5015867;28;20053;-72
2023/09/18 00:58:40;;;;;;;108.65;43.05;;;;;;;;;;5014966;28;20401;-72
2023/09/18 01:01:08;;;;;;;106.88;43.38;;;;;;;;;;5015802;28;20053;-73
2023/09/18 01:03:34;;;;;;;106.75;43.90;;;;;;;;;;5015738;28;20120;-72
2023/09/18 01:06:01;;;;;;;108.40;45.03;;;;;;;;;;5015364;28;20049;-72
2023/09/18 01:08:27;;;;;;;114.20;47.57;;;;;;;;;;4998530;28;20046;-72
2023/09/18 01:11:03;;;;;;;113.15;46.97;;;;;;;;;;5014174;28;20057;-73
2023/09/18 01:13:36;;;;;;;115.57;48.03;;;;;;;;;;5015650;28;20057;-73
2023/09/18 01:16:07;;;;;;;108.80;44.58;;;;;;;;;;5015986;28;20149;-74
2023/09/18 01:18:33;;;;;;;107.00;45.20;;;;;;;;;;5014296;28;20058;-73
2023/09/18 01:20:59;;;;;;;105.57;46.10;;;;;;;;;;5015594;28;20096;-73
2023/09/18 01:23:25;;;;;;;109.37;44.40;;;;;;;;;;5015477;28;20050;-73
2023/09/18 01:25:51;;;;;;;110.87;46.77;;;;;;;;;;5014201;28;20312;-73
2023/09/18 01:28:17;;;;;;;105.17;46.33;;;;;;;;;;5014272;28;20339;-73
2023/09/18 01:30:44;;;;;;;109.50;45.47;;;;;;;;;;5015422;28;20049;-73
2023/09/18 01:33:10;;;;;;;106.07;45.30;;;;;;;;;;5015292;28;20053;-72
2023/09/18 01:35:37;;;;;;;111.55;44.88;;;;;;;;;;5015172;28;20042;-73
2023/09/18 01:38:04;;;;;;;108.72;45.95;;;;;;;;;;5015199;28;20052;-73
2023/09/18 01:40:31;;;;;;;95.53;43.47;;;;;;;;;;5015963;28;20128;-72
2023/09/18 01:42:57;;;;;;;97.82;42.67;;;;;;;;;;5014909;28;20375;-73
2023/09/18 01:45:24;;;;;;;102.88;44.78;;;;;;;;;;5014985;28;20150;-73
2023/09/18 01:47:50;;;;;;;105.55;44.70;;;;;;;;;;5015833;28;20068;-73
2023/09/18 01:50:16;;;;;;;107.67;44.97;;;;;;;;;;5013600;28;20060;-72
2023/09/18 01:52:42;;;;;;;98.65;42.53;;;;;;;;;;5014955;28;20280;-73
2023/09/18 01:55:08;;;;;;;97.63;41.67;;;;;;;;;;5014925;28;20445;-73
2023/09/18 01:57:36;;;;;;;100.13;40.72;;;;;;;;;;5014419;28;20050;-73
2023/09/18 02:00:07;;;;;;;95.65;41.40;;;;;;;;;;5015579;28;20167;-73
2023/09/18 02:02:33;;;;;;;94.53;40.80;;;;;;;;;;5015081;28;20389;-73
2023/09/18 02:05:00;;;;;;;90.53;41.28;;;;;;;;;;5013409;28;20054;-72
2023/09/18 02:07:26;;;;;;;;;;;;;;;;;;5013898;28;20046;-73
2023/09/18 02:09:52;;;;;;;94.65;39.75;;;;;;;;;;5014165;28;19921;-72
2023/09/18 02:12:19;;;;;;;95.00;41.25;;;;;;;;;;5015086;28;20145;-73
2023/09/18 02:14:45;;;;;;;94.72;41.72;;;;;;;;;;5014589;28;20054;-73
2023/09/18 02:17:12;;;;;;;98.82;41.85;;;;;;;;;;5014944;28;20050;-73
2023/09/18 02:19:38;;;;;;;98.00;42.07;;;;;;;;;;5014407;28;20056;-73
2023/09/18 02:22:04;;;;;;;92.93;41.90;;;;;;;;;;5013101;28;20320;-73
2023/09/18 02:24:30;;;;;;;95.38;41.83;;;;;;;;;;5013827;28;20394;-73
2023/09/18 02:26:56;;;;;;;99.30;41.55;;;;;;;;;;5014245;28;20049;-72
2023/09/18 02:29:23;;;;;;;95.20;40.97;;;;;;;;;;5014223;28;20050;-72
2023/09/18 02:31:49;;;;;;;94.40;41.47;;;;;;;;;;5013349;28;20061;-73
2023/09/18 02:34:15;;;;;;;95.50;41.07;;;;;;;;;;5015027;28;20426;-73
2023/09/18 02:36:41;;;;;;;97.57;41.87;;;;;;;;;;5014097;28;20313;-72
2023/09/18 02:39:07;;;;;;;103.30;42.93;;;;;;;;;;5012854;28;20292;-73
2023/09/18 02:41:33;;;;;;;91.45;41.03;;;;;;;;;;5013152;28;20054;-73
2023/09/18 02:43:59;;;;;;;94.57;41.30;;;;;;;;;;5014111;28;20371;-73
2023/09/18 02:46:25;;;;;;;94.57;40.37;;;;;;;;;;5014726;28;20042;-73
2023/09/18 02:48:51;;;;;;;90.45;40.05;;;;;;;;;;5012819;28;20291;-73
2023/09/18 02:51:17;;;;;;;89.63;38.10;;;;;;;;;;5014011;28;20088;-73
2023/09/18 02:53:43;;;;;;;82.80;37.10;;;;;;;;;;5013831;28;20399;-72
2023/09/18 02:56:09;;;;;;;83.78;35.28;;;;;;;;;;5013499;28;20285;-72
2023/09/18 02:58:36;;;;;;;79.40;36.47;;;;;;;;;;5012852;28;20089;-71
2023/09/18 03:01:03;;;;;;;84.93;36.95;;;;;;;;;;5013572;28;20281;-71
2023/09/18 03:03:30;;;;;;;76.88;34.65;;;;;;;;;;5012713;28;20061;-71
2023/09/18 03:06:01;;;;;;;81.60;36.25;;;;;;;;;;5013938;28;20144;-72
2023/09/18 03:08:28;;;;;;;79.07;34.92;;;;;;;;;;5013499;28;20056;-72
2023/09/18 03:10:54;;;;;;;78.88;33.97;;;;;;;;;;4996420;28;20054;-73
2023/09/18 03:13:22;;;;;;;77.32;35.20;;;;;;;;;;5013402;28;20514;-72
2023/09/18 03:15:48;;;;;;;79.10;35.67;;;;;;;;;;5013576;28;20049;-72
2023/09/18 03:18:14;;;;;;;74.10;34.53;;;;;;;;;;5012699;28;20394;-72
2023/09/18 03:20:40;;;;;;;80.07;34.42;;;;;;;;;;5012565;28;20482;-73
2023/09/18 03:23:06;;;;;;;79.72;34.00;;;;;;;;;;5013619;28;20053;-73
2023/09/18 03:25:32;;;;;;;72.97;32.57;;;;;;;;;;5014152;28;20081;-73
2023/09/18 03:27:58;;;;;;;70.75;33.45;;;;;;;;;;5012307;28;20070;-74
2023/09/18 03:30:25;;;;;;;69.07;30.65;;;;;;;;;;5012585;28;20062;-73
2023/09/18 03:32:51;;;;;;;71.33;32.33;;;;;;;;;;5013985;28;20046;-73
2023/09/18 03:35:18;;;;;;;66.93;30.05;;;;;;;;;;5014592;28;20300;-72
2023/09/18 03:37:48;;;;;;;61.78;28.70;;;;;;;;;;5017509;28;20513;-72
2023/09/18 03:40:14;;;;;;;61.35;28.83;;;;;;;;;;5017118;28;20046;-73
2023/09/18 03:42:40;;;;;;;64.32;29.92;;;;;;;;;;5017295;28;20093;-72
2023/09/18 03:45:07;;;;;;;65.13;29.67;;;;;;;;;;5017818;28;20104;-72
2023/09/18 03:47:39;;;;;;;61.85;28.83;;;;;;;;;;5016268;28;20649;-72
2023/09/18 03:50:05;;;;;;;59.72;27.15;;;;;;;;;;5015954;28;20460;-73
2023/09/18 03:52:31;;;;;;;60.47;28.00;;;;;;;;;;5017087;28;20046;-72
2023/09/18 03:54:57;;;;;;;62.80;28.17;;;;;;;;;;5017133;28;20107;-73
2023/09/18 03:57:23;;;;;;;57.22;27.50;;;;;;;;;;4999840;28;20463;-73
2023/09/18 03:59:49;;;;;;;59.07;27.07;;;;;;;;;;5017327;28;20441;-73
2023/09/18 04:02:15;;;;;;;60.80;27.10;;;;;;;;;;5017471;28;20368;-73
2023/09/18 04:04:41;;;;;;;55.63;26.80;;;;;;;;;;5017772;28;20173;-72
2023/09/18 04:07:08;;;;;;;59.50;26.77;;;;;;;;;;5016928;28;20530;-73
2023/09/18 04:09:37;;;;;;;59.28;25.98;;;;;;;;;;5016869;28;20281;-74
2023/09/18 04:12:07;;;;;;;57.83;25.58;;;;;;;;;;5016651;28;20057;-72
2023/09/18 04:14:33;;;;;;;54.85;26.00;;;;;;;;;;5017369;28;20445;-73
2023/09/18 04:17:02;;;;;;;53.10;25.17;;;;;;;;;;5015470;28;20038;-71
2023/09/18 04:19:29;;;;;;;57.55;25.02;;;;;;;;;;5015669;28;20482;-73
2023/09/18 04:21:55;;;;;;;48.95;24.55;;;;;;;;;;5016587;28;20096;-73
2023/09/18 04:24:21;;;;;;;51.70;23.77;;;;;;;;;;5016551;28;20379;-73
2023/09/18 04:26:47;;;;;;;49.53;24.15;;;;;;;;;;5017153;28;20733;-73
2023/09/18 04:29:13;;;;;;;53.63;23.93;;;;;;;;;;5016501;28;20042;-73
2023/09/18 04:31:39;;;;;;;55.27;24.77;;;;;;;;;;5016295;28;20281;-72
2023/09/18 04:34:06;;;;;;;57.37;23.77;;;;;;;;;;5015587;28;20380;-73
2023/09/18 04:36:32;;;;;;;56.85;24.67;;;;;;;;;;4999350;28;20061;-73
2023/09/18 04:38:58;;;;;;;50.15;22.92;;;;;;;;;;5015189;28;20061;-72
2023/09/18 04:41:24;;;;;;;55.70;23.73;;;;;;;;;;5016551;28;20402;-71
2023/09/18 04:43:50;;;;;;;51.63;21.90;;;;;;;;;;5014896;28;20370;-72
2023/09/18 04:46:16;;;;;;;54.43;24.17;;;;;;;;;;4998354;28;20470;-73
2023/09/18 04:48:43;;;;;;;60.23;24.07;;;;;;;;;;5015830;28;20591;-73
2023/09/18 04:51:09;;;;;;;53.25;22.67;;;;;;;;;;5014994;28;20057;-73
2023/09/18 04:53:35;;;;;;;51.00;23.02;;;;;;;;;;5014923;28;20437;-72
2023/09/18 04:56:01;;;;;;;47.40;22.27;;;;;;;;;;5016675;28;20069;-74
2023/09/18 04:58:27;;;;;;;44.77;22.10;;;;;;;;;;5014998;28;20288;-73
2023/09/18 05:00:56;;;;;;;49.92;22.88;;;;;;;;;;4998621;28;20081;-73
2023/09/18 05:03:23;;;;;;;50.97;23.60;;;;;;;;;;5014300;28;20516;-73
2023/09/18 05:05:49;;;;;;;47.67;21.77;;;;;;;;;;5014295;28;20042;-73
2023/09/18 05:08:15;;;;;;;43.58;21.70;;;;;;;;;;5015694;28;20359;-72
2023/09/18 05:10:41;;;;;;;45.30;22.95;;;;;;;;;;5014244;28;20065;-73
2023/09/18 05:13:08;;;;;;;55.97;22.58;;;;;;;;;;5013940;28;20058;-72
2023/09/18 05:15:34;;;;;;;52.08;22.05;;;;;;;;;;5014589;28;20504;-74
2023/09/18 05:18:00;;;;;;;50.67;23.00;;;;;;;;;;5015468;28;20153;-72
2023/09/18 05:20:27;;;;;;;49.20;21.73;;;;;;;;;;5015508;28;20057;-72
2023/09/18 05:22:54;;;;;;;46.30;20.45;;;;;;;;;;5015369;28;20053;-72
2023/09/18 05:25:21;;;;;;;46.97;21.50;;;;;;;;;;5015464;28;20096;-73
2023/09/18 05:27:48;;;;;;;43.92;20.23;;;;;;;;;;5015349;28;20060;-74
2023/09/18 05:30:15;;;;;;;;;;;;;;;;;;5014615;28;20389;-73
2023/09/18 05:32:41;;;;;;;;;;;;;;;;;;5015132;28;19921;-74
2023/09/18 05:35:10;;;;;;;41.80;20.13;;;;;;;;;;5013889;28;19969;-73
2023/09/18 05:37:37;;;;;;;47.55;20.35;;;;;;;;;;5015497;28;20050;-74
2023/09/18 05:40:05;;;;;;;47.38;20.38;;;;;;;;;;5015670;28;20104;-73
2023/09/18 05:42:31;;;;;;;43.33;19.33;;;;;;;;;;4997811;28;20100;-73
2023/09/18 05:44:57;;;;;;;46.55;20.40;;;;;;;;;;5015192;28;20045;-74
2023/09/18 05:47:23;;;;;;;51.10;19.73;;;;;;;;;;4997893;28;20128;-73
2023/09/18 05:49:49;;;;;;;40.47;19.20;;;;;;;;;;5014907;28;20057;-73
2023/09/18 05:52:15;;;;;;;44.50;19.65;;;;;;;;;;5013955;28;20132;-73
2023/09/18 05:54:41;;;;;;;49.05;18.92;;;;;;;;;;4997219;28;20490;-74
2023/09/18 05:57:07;;;;;;;44.17;19.90;;;;;;;;;;5014827;28;20046;-72
2023/09/18 05:59:33;;;;;;;47.67;20.30;;;;;;;;;;5012987;28;20367;-72
2023/09/18 06:01:59;;;;;;;42.27;18.17;;;;;;;;;;5013407;28;20420;-72
2023/09/18 06:04:26;;;;;;;49.50;19.57;;;;;;;;;;4997706;28;20281;-73
2023/09/18 06:06:52;;;;;;;48.15;17.83;;;;;;;;;;4997104;28;20038;-73
2023/09/18 06:09:18;;;;;;;41.53;19.00;;;;;;;;;;5014867;28;20128;-74
2023/09/18 06:11:44;;;;;;;38.72;17.33;;;;;;;;;;5013295;28;20062;-73
2023/09/18 06:14:11;;;;;;;43.75;17.00;;;;;;;;;;5014501;28;20045;-73
2023/09/18 06:16:37;;;;;;;;;;;;;;;;;;5014917;28;20053;-73
2023/09/18 06:19:03;;;;;;;38.22;15.82;;;;;;;;;;5014397;28;19928;-74
2023/09/18 06:21:29;;;;;;;42.83;17.30;;;;;;;;;;5013521;28;20042;-74
2023/09/18 06:23:55;;;;;;;39.60;16.50;;;;;;;;;;5014371;28;20100;-72
2023/09/18 06:26:21;;;;;;;41.55;16.33;;;;;;;;;;5013200;28;20121;-73
2023/09/18 06:28:47;;;;;;;36.92;16.23;;;;;;;;;;5014005;28;20474;-74
2023/09/18 06:31:14;;;;;;;41.45;16.83;;;;;;;;;;5013235;28;20096;-73
2023/09/18 06:33:40;;;;;;;38.80;16.45;;;;;;;;;;5012956;28;20050;-71
2023/09/18 06:36:06;;;;;;;42.17;17.20;;;;;;;;;;5014294;28;20474;-70
2023/09/18 06:38:32;;;;;;;54.60;20.03;;;;;;;;;;5014651;28;20328;-69
2023/09/18 06:40:58;;;;;;;46.47;17.53;;;;;;;;;;5013910;28;20289;-69
2023/09/18 06:43:24;;;;;;;41.23;17.17;;;;;;;;;;5012764;28;20285;-68
2023/09/18 06:45:50;;;;;;;51.60;18.75;;;;;;;;;;5013760;28;20474;-68
2023/09/18 06:48:17;;;;;;;69.10;21.73;;;;;;;;;;5012761;28;20045;-73
2023/09/18 06:50:43;;;;;;;58.00;22.98;;;;;;;;;;5013750;28;20116;-70
2023/09/18 06:53:10;;;;;;;51.40;19.95;;;;;;;;;;5012925;28;20049;-68
2023/09/18 06:55:36;;;;;;;52.15;21.88;;;;;;;;;;5012698;28;20046;-71
2023/09/18 06:58:02;;;;;;;;;;;;;;;;;;5014697;28;20133;-70
2023/09/18 07:00:29;;;;;;;59.08;22.45;;;;;;;;;;5012633;28;19972;-73
2023/09/18 07:02:56;;;;;;;55.67;22.70;;;;;;;;;;5013044;28;20066;-74
2023/09/18 07:05:22;;;;;;;66.40;25.90;;;;;;;;;;5012125;28;20478;-72
2023/09/18 07:07:48;;;;;;;65.57;25.95;;;;;;;;;;5014205;28;20053;-74
2023/09/18 07:10:14;;;;;;;65.28;25.05;;;;;;;;;;5012365;28;20084;-73
2023/09/18 07:12:40;;;;;;;54.35;22.33;;;;;;;;;;5012306;28;20057;-72
2023/09/18 07:15:07;;;;;;;59.60;23.23;;;;;;;;;;5012556;28;20144;-71
2023/09/18 07:17:33;;;;;;;54.42;22.30;;;;;;;;;;5012912;28;20137;-70
2023/09/18 07:20:00;;;;;;;51.75;21.25;;;;;;;;;;5012440;28;20052;-69
2023/09/18 07:22:26;;;;;;;53.05;20.50;;;;;;;;;;5013331;28;20062;-70
2023/09/18 07:24:52;;;;;;;48.10;20.90;;;;;;;;;;5013546;28;20054;-70
2023/09/18 07:27:18;;;;;;;51.43;22.43;;;;;;;;;;5011917;28;20130;-69
2023/09/18 07:29:44;;;;;;;55.35;23.90;;;;;;;;;;5014018;28;20050;-70
2023/09/18 07:32:10;;;;;;;63.53;25.17;;;;;;;;;;5013415;28;20041;-69
2023/09/18 07:34:37;;;;;;;54.88;23.30;;;;;;;;;;5013451;28;20156;-69
2023/09/18 07:37:03;;;;;;;65.50;23.60;;;;;;;;;;5014105;28;20046;-69
2023/09/18 07:39:29;;;;;;;66.10;24.88;;;;;;;;;;5013154;28;20053;-69
2023/09/18 07:41:55;;;;;;;53.60;22.33;;;;;;;;;;5013307;28;20089;-69
2023/09/18 07:44:22;;;;;;;47.80;21.73;;;;;;;;;;5013772;28;20058;-69
2023/09/18 07:46:48;;;;;;;53.83;21.65;;;;;;;;;;5013235;28;20046;-68
2023/09/18 07:49:14;;;;;;;58.78;22.05;;;;;;;;;;5013435;28;20045;-68
2023/09/18 07:51:40;;;;;;;52.97;21.77;;;;;;;;;;5013179;28;20107;-69
2023/09/18 07:54:07;;;;;;;49.33;22.40;;;;;;;;;;5013155;28;20133;-71
2023/09/18 07:56:36;;;;;;;49.10;21.25;;;;;;;;;;5013764;28;20077;-70
2023/09/18 07:59:02;;;;;;;47.30;20.58;;;;;;;;;;5012852;28;20494;-69
2023/09/18 08:01:31;;;;;;;;;;;;;;;;;;5013508;28;20052;-69
2023/09/18 08:03:59;;;;;;;49.30;21.17;;;;;;;;;;5013191;28;19932;-69
2023/09/18 08:06:26;;;;;;;54.22;21.85;;;;;;;;;;5012598;28;20104;-69
2023/09/18 08:08:53;;;;;;;56.47;23.77;;;;;;;;;;5011970;28;20104;-69
2023/09/18 08:11:19;;;;;;;52.25;21.83;;;;;;;;;;5011711;28;20104;-69
2023/09/18 08:13:45;;;;;;;53.80;22.02;;;;;;;;;;5012550;28;20050;-69
2023/09/18 08:16:12;;;;;;;55.55;21.55;;;;;;;;;;5012684;28;20506;-70
2023/09/18 08:18:41;;;;;;;50.13;20.42;;;;;;;;;;4995988;28;20050;-69
2023/09/18 08:21:08;;;;;;;48.72;22.20;;;;;;;;;;5013685;28;20108;-69
2023/09/18 08:23:36;;;;;;;53.55;22.50;;;;;;;;;;4999503;28;20505;-70
2023/09/18 08:26:03;;;;;;;48.70;21.52;;;;;;;;;;5016569;28;20050;-69
2023/09/18 08:28:30;;;;;;;50.55;21.20;;;;;;;;;;5016497;28;20101;-69
2023/09/18 08:30:58;;;;;;;53.92;22.60;;;;;;;;;;5015646;28;20049;-71
2023/09/18 08:33:24;;;;;;;54.47;21.85;;;;;;;;;;5016012;28;20046;-71
2023/09/18 08:35:51;;;;;;;50.20;22.75;;;;;;;;;;5016448;28;20108;-71
2023/09/18 08:38:17;;;;;;;54.88;23.38;;;;;;;;;;5015923;28;20049;-71
2023/09/18 08:40:43;;;;;;;61.65;23.25;;;;;;;;;;4998997;28;20049;-70
2023/09/18 08:43:11;;;;;;;54.50;23.48;;;;;;;;;;5016382;28;20041;-71
2023/09/18 08:45:52;;;;;;;55.13;22.77;;;;;;;;;;5015218;28;20081;-72
2023/09/18 08:48:19;;;;;;;49.35;21.83;;;;;;;;;;5016127;28;20085;-71
2023/09/18 08:50:46;;;;;;;50.67;22.67;;;;;;;;;;5017047;28;20429;-70
2023/09/18 08:53:12;;;;;;;55.15;22.00;;;;;;;;;;5016067;28;20132;-71
2023/09/18 08:55:38;;;;;;;55.80;22.10;;;;;;;;;;5016049;28;20120;-71
2023/09/18 08:58:06;;;;;;;45.50;20.00;;;;;;;;;;5014795;28;20046;-70
2023/09/18 09:00:32;;;;;;;48.92;20.42;;;;;;;;;;5015297;28;20053;-71
2023/09/18 09:02:59;;;;;;;47.15;19.58;;;;;;;;;;5015886;28;20115;-71
2023/09/18 09:05:25;;;;;;;49.55;19.58;;;;;;;;;;5015698;28;20042;-72
2023/09/18 09:07:51;;;;;;;47.97;20.58;;;;;;;;;;5015642;28;20369;-72
2023/09/18 09:10:18;;;;;;;43.05;19.58;;;;;;;;;;5015941;28;20056;-72
2023/09/18 09:13:01;;;;;;;40.53;19.52;;;;;;;;;;5014128;28;20057;-71
2023/09/18 09:15:28;;;;;;;44.58;19.17;;;;;;;;;;5014479;28;20046;-71
2023/09/18 09:18:08;;;;;;;43.60;19.42;;;;;;;;;;5015657;28;20049;-73
2023/09/18 09:20:38;;;;;;;44.22;20.08;;;;;;;;;;5014357;28;20050;-73
2023/09/18 09:23:04;;;;;;;47.05;19.63;;;;;;;;;;5015505;28;20046;-73
2023/09/18 09:25:33;;;;;;;42.60;19.55;;;;;;;;;;5015623;28;20042;-73
2023/09/18 09:28:00;;;;;;;38.08;16.98;;;;;;;;;;5014486;28;20056;-71
2023/09/18 09:30:27;;;;;;;34.30;16.88;;;;;;;;;;4999011;28;20046;-73
2023/09/18 09:32:54;;;;;;;33.50;17.33;;;;;;;;;;5012654;28;20077;-72
2023/09/18 09:35:20;;;;;;;;;;;;;;;;;;5014741;28;20054;-73
2023/09/18 09:37:46;;;;;;;30.13;15.90;;;;;;;;;;5015556;28;19929;-73
2023/09/18 09:40:14;;;;;;;36.85;16.08;;;;;;;;;;5014125;28;20129;-75
2023/09/18 09:42:41;;;;;;;32.78;15.68;;;;;;;;;;5014091;28;20046;-73
2023/09/18 09:45:07;;;;;;;;;;;;;;;;;;5015454;28;20057;-73
2023/09/18 09:47:33;;;;;;;;;;;;;;;;;;5015478;28;19929;-72
2023/09/18 09:49:59;;;;;;;30.35;14.82;;;;;;;;;;5015514;28;20334;-73
2023/09/18 09:52:26;;;;;;;29.27;14.32;;;;;;;;;;5013752;28;20058;-73
2023/09/18 09:54:52;;;;;;;26.77;13.07;;;;;;;;;;5014540;28;20517;-73
2023/09/18 09:57:18;;;;;;;23.70;12.38;;;;;;;;;;5015071;28;20077;-73
2023/09/18 09:59:44;;;;;;;24.73;12.35;;;;;;;;;;5014883;28;20045;-73
2023/09/18 10:02:14;;;;;;;27.08;13.30;;;;;;;;;;5013974;28;20077;-73
2023/09/18 10:04:43;;;;;;;29.52;12.20;;;;;;;;;;5013368;28;20524;-73
2023/09/18 10:07:10;;;;;;;21.88;11.73;;;;;;;;;;5014700;28;20513;-73
2023/09/18 10:09:38;;;;;;;26.27;11.95;;;;;;;;;;4997252;28;20108;-74
2023/09/18 10:12:07;;;;;;;25.55;10.85;;;;;;;;;;5013316;28;20483;-72
2023/09/18 10:14:37;;;;;;;22.45;12.00;;;;;;;;;;5014798;28;20085;-73
2023/09/18 10:17:19;;;;;;;19.83;10.98;;;;;;;;;;5013585;28;20046;-73
2023/09/18 10:19:52;;;;;;;24.23;10.88;;;;;;;;;;5015037;28;20089;-73
2023/09/18 10:22:37;;;;;;;21.30;10.55;;;;;;;;;;5014430;28;20061;-74
2023/09/18 10:25:10;;;;;;;19.77;10.60;;;;;;;;;;5015218;28;20045;-73
2023/09/18 10:27:38;;;;;;;20.02;10.43;;;;;;;;;;5014764;28;20084;-72
2023/09/18 10:30:10;;;;;;;20.33;9.70;;;;;;;;;;5013540;28;20129;-72
2023/09/18 10:32:38;;;;;;;21.38;9.45;;;;;;;;;;5014395;28;20089;-74
2023/09/18 10:35:04;;;;;;;17.30;9.05;;;;;;;;;;5014429;28;20054;-73
2023/09/18 10:37:31;;;;;;;16.67;9.27;;;;;;;;;;5014549;28;20437;-72
2023/09/18 10:39:57;;;;;;;17.75;8.82;;;;;;;;;;5014572;28;20181;-72
2023/09/18 10:42:23;;;;;;;18.58;9.50;;;;;;;;;;4997186;28;20042;-72
2023/09/18 10:44:50;;;;;;;14.68;7.97;;;;;;;;;;5013055;28;20042;-72
2023/09/18 10:47:17;;;;;;;16.90;8.82;;;;;;;;;;5012935;28;20042;-70
2023/09/18 10:49:43;;;;;;;20.75;8.70;;;;;;;;;;5014598;28;20055;-71
2023/09/18 10:52:14;;;;;;;15.82;8.55;;;;;;;;;;5013565;28;20513;-72
2023/09/18 10:54:40;;;;;;;18.80;7.72;;;;;;;;;;5014331;28;20060;-73
2023/09/18 10:57:06;;;;;;;17.25;7.90;;;;;;;;;;5013055;28;20054;-71
2023/09/18 10:59:33;;;;;;;16.70;8.63;;;;;;;;;;5013414;28;20049;-69
2023/09/18 11:01:59;;;;;;;;;;;;;;;;;;5014360;28;20096;-70
2023/09/18 11:04:25;;;;;;;13.48;6.63;;;;;;;;;;5013897;28;19921;-71
2023/09/18 11:06:54;;;;;;;14.57;7.57;;;;;;;;;;5013763;28;20103;-70
2023/09/18 11:09:24;;;;;;;18.38;7.65;;;;;;;;;;5012334;28;20129;-69
2023/09/18 11:12:00;;;;;;;14.38;7.65;;;;;;;;;;5013321;28;20053;-72
2023/09/18 11:15:06;;;;;;;14.30;7.47;;;;;;;;;;5014429;28;20054;-71
2023/09/18 11:17:33;;;;;;;15.70;6.57;;;;;;;;;;4992000;28;20454;-71
2023/09/18 11:20:14;;;;;;;15.45;7.20;;;;;;;;;;4992475;28;20182;-71
2023/09/18 11:22:47;;;;;;;12.98;6.20;;;;;;;;;;4996965;28;20089;-70
2023/09/18 11:25:31;;;;;;;13.48;7.03;;;;;;;;;;5013847;28;20502;-70
2023/09/18 11:27:58;;;;;;;14.25;7.25;;;;;;;;;;5013402;28;20454;-71
2023/09/18 11:30:24;;;;;;;15.23;6.43;;;;;;;;;;5013551;28;20052;-71
2023/09/18 11:32:50;;;;;;;10.85;5.32;;;;;;;;;;5013454;28;20100;-70
2023/09/18 11:35:19;;;;;;;13.48;6.07;;;;;;;;;;5013424;28;20050;-71
2023/09/18 11:37:46;;;;;;;11.63;5.15;;;;;;;;;;5013260;28;20343;-71
2023/09/18 11:40:30;;;;;;;11.57;5.22;;;;;;;;;;5013470;28;20042;-69
2023/09/18 11:43:15;;;;;;;12.23;4.80;;;;;;;;;;5012623;28;20108;-71
2023/09/18 11:45:42;;;;;;;11.68;4.78;;;;;;;;;;5013271;28;20085;-71
2023/09/18 11:48:11;;;;;;;12.20;5.00;;;;;;;;;;5013898;28;20046;-70
2023/09/18 11:50:39;;;;;;;11.68;4.68;;;;;;;;;;5013378;28;20060;-71
2023/09/18 11:53:06;;;;;;;12.15;4.85;;;;;;;;;;5013810;28;20049;-71
2023/09/18 11:55:34;;;;;;;14.27;4.25;;;;;;;;;;5013898;28;20439;-72
2023/09/18 11:58:01;;;;;;;10.38;4.28;;;;;;;;;;5016976;28;20053;-72
2023/09/18 12:00:29;;;;;;;11.40;4.65;;;;;;;;;;5017145;28;20115;-71
2023/09/18 12:02:57;;;;;;;10.75;3.75;;;;;;;;;;5015911;28;20046;-71
2023/09/18 12:05:27;;;;;;;9.95;3.85;;;;;;;;;;5016108;28;20375;-71
2023/09/18 12:07:54;;;;;;;10.32;3.80;;;;;;;;;;5016555;28;20508;-72
2023/09/18 12:10:21;;;;;;;11.40;3.90;;;;;;;;;;5015972;28;20050;-71
2023/09/18 12:12:47;;;;;;;11.88;3.97;;;;;;;;;;5016754;28;20064;-73
2023/09/18 12:15:24;;;;;;;10.38;3.95;;;;;;;;;;5016745;28;20135;-73
2023/09/18 12:17:54;;;;;;;12.00;4.03;;;;;;;;;;5016274;28;20089;-73
2023/09/18 12:20:20;;;;;;;12.68;4.50;;;;;;;;;;5016579;28;20081;-72
2023/09/18 12:22:53;;;;;;;10.07;4.22;;;;;;;;;;5016760;28;20057;-71
2023/09/18 12:25:19;;;;;;;13.30;4.43;;;;;;;;;;5015606;28;20055;-70
2023/09/18 12:27:45;;;;;;;12.52;5.38;;;;;;;;;;5017181;28;20042;-71
2023/09/18 12:30:14;;;;;;;13.32;5.60;;;;;;;;;;5016657;28;20437;-74
2023/09/18 12:32:41;;;;;;;12.75;5.82;;;;;;;;;;5017128;28;20050;-73
2023/09/18 12:35:07;;;;;;;17.15;5.35;;;;;;;;;;5016628;28;20108;-74
2023/09/18 12:37:34;;;;;;;14.63;5.55;;;;;;;;;;5015451;28;20045;-73
2023/09/18 12:40:00;;;;;;;13.07;6.18;;;;;;;;;;5016452;28;20119;-71
2023/09/18 12:42:27;;;;;;;11.95;5.97;;;;;;;;;;5016719;28;20391;-72
2023/09/18 12:44:54;;;;;;;13.70;6.38;;;;;;;;;;5016242;28;20045;-72
2023/09/18 12:47:20;;;;;;;15.10;7.50;;;;;;;;;;5015600;28;20050;-74
2023/09/18 12:49:47;;;;;;;23.83;8.73;;;;;;;;;;5016292;28;20050;-71
2023/09/18 12:52:13;;;;;;;17.58;8.05;;;;;;;;;;5016196;28;20512;-74
2023/09/18 12:54:53;;;;;;;19.90;9.10;;;;;;;;;;5015313;28;20042;-71
2023/09/18 12:57:19;;;;;;;22.50;8.90;;;;;;;;;;5016760;28;20052;-72
2023/09/18 12:59:46;;;;;;;21.27;9.43;;;;;;;;;;4998770;28;20108;-71
2023/09/18 13:02:12;;;;;;;;;;;;;;;;;;5016401;28;20064;-73
2023/09/18 13:04:38;;;;;;;21.45;9.77;;;;;;;;;;5016009;28;19921;-73
2023/09/18 13:07:07;;;;;;;19.90;9.90;;;;;;;;;;5015640;28;20046;-72
2023/09/18 13:09:34;;;;;;;21.05;11.23;;;;;;;;;;5016170;28;20100;-73
2023/09/18 13:12:02;;;;;;;18.83;10.55;;;;;;;;;;5015789;28;20560;-76
2023/09/18 13:14:28;;;;;;;25.17;11.43;;;;;;;;;;5015213;28;20099;-73
2023/09/18 13:17:01;;;;;;;20.27;10.23;;;;;;;;;;5015114;28;20471;-73
2023/09/18 13:19:27;;;;;;;20.67;11.05;;;;;;;;;;5015700;28;20096;-74
2023/09/18 13:21:53;;;;;;;23.02;10.02;;;;;;;;;;5015724;28;20099;-73
2023/09/18 13:24:31;;;;;;;19.98;9.82;;;;;;;;;;5016201;28;20041;-78
2023/09/18 13:27:01;;;;;;;23.00;11.68;;;;;;;;;;5016646;28;20085;-75
2023/09/18 13:29:27;;;;;;;25.55;11.90;;;;;;;;;;5016845;28;20050;-75
2023/09/18 13:31:53;;;;;;;21.35;10.82;;;;;;;;;;5016485;28;20050;-76
2023/09/18 13:34:20;;;;;;;23.67;11.10;;;;;;;;;;5014529;28;20053;-73
2023/09/18 13:36:47;;;;;;;19.55;10.00;;;;;;;;;;5015553;28;20053;-75
2023/09/18 13:39:16;;;;;;;20.98;8.15;;;;;;;;;;5015375;28;20108;-77
2023/09/18 13:41:43;;;;;;;16.55;8.18;;;;;;;;;;5014414;28;20398;-72
2023/09/18 13:44:09;;;;;;;17.88;8.18;;;;;;;;;;4997938;28;20041;-72
2023/09/18 13:46:36;;;;;;;15.75;7.55;;;;;;;;;;4997789;28;20449;-73
2023/09/18 13:49:06;;;;;;;14.73;7.43;;;;;;;;;;5013921;28;20088;-73
2023/09/18 13:51:33;;;;;;;11.35;6.78;;;;;;;;;;4998696;28;20105;-75
2023/09/18 13:53:59;;;;;;;12.25;5.95;;;;;;;;;;4997670;28;20042;-74
2023/09/18 13:56:28;;;;;;;12.13;5.85;;;;;;;;;;5014446;28;20050;-73
2023/09/18 13:58:55;;;;;;;11.13;6.03;;;;;;;;;;5015027;28;20042;-74
2023/09/18 14:01:22;;;;;;;14.00;6.18;;;;;;;;;;5015341;28;20085;-73
2023/09/18 14:03:48;;;;;;;12.75;5.95;;;;;;;;;;5014553;28;20603;-75
2023/09/18 14:06:14;;;;;;;15.07;5.53;;;;;;;;;;5013579;28;20044;-74
2023/09/18 14:08:40;;;;;;;13.20;5.60;;;;;;;;;;5015390;28;20050;-74
2023/09/18 14:11:06;;;;;;;10.25;5.32;;;;;;;;;;5015444;28;20049;-74
2023/09/18 14:13:33;;;;;;;12.82;4.70;;;;;;;;;;5014683;28;20111;-74
2023/09/18 14:15:59;;;;;;;16.52;4.70;;;;;;;;;;4997990;28;20420;-74
2023/09/18 14:18:27;;;;;;;10.88;4.40;;;;;;;;;;5014245;28;20093;-76
2023/09/18 14:20:53;;;;;;;16.40;5.28;;;;;;;;;;4997679;28;20054;-77
2023/09/18 14:23:19;;;;;;;14.45;4.80;;;;;;;;;;5014522;28;20064;-74